Disclaimer

Please do not use the information listed here in-flight or in-navigation, as they are not provided to us by the airports but are provided by volunteers, so they might be outdated.

Search


Regions


Airport information page

Radio informations:
Ground (GND) - 121.85 MHz
Automatic Terminal Information Service (ATIS) - 128.125 MHz
LYON APP - 119.45 MHz

Airport informations:
Latitude: 45° 43' 37.82" N
Longitude: 004° 56' 39.39" E
Elevation: 659 feet - 201 meters
Operating hours: 24 hour operations
Operating agency: Civil government, landing fees and diplomatic clearance may be required
Timezone: UTC+1(+2DT) - Last Sunday in March to last Sunday in October
Fuel: Jet A1, without icing nhibitor.

100/130 MIL Spec, low lead, aviation gasoline (BLUE)

Runway information:
16/34 - 5971 x 148 feet< - >1820 x 45 meters

Recent METARs:
LFLY 172030Z AUTO 17005KT 9999 BKN032 08/04 Q1020 BECMG BKN006
LFLY 172100Z AUTO 11003KT 9999 SCT029 07/04 Q1021 BECMG BKN006
LFLY 172130Z AUTO 10005KT 9999 OVC029 07/05 Q1021 BECMG BKN006

Airport on the map: